Time;durP1;ratioP1;P1;durP2;ratioP2;P2;SDS_P1;SDS_P2;PMS_P1;PMS_P2;Temp;Humidity;BMP_temperature;BMP_pressure;BME280_temperature;BME280_humidity;BME280_pressure;Samples;Min_cycle;Max_cycle;Signal;HPM_P1;HPM_P2
2023/05/31 00:00:38;;;;;;;4.90;2.83;;;8.90;99.90;;;;;;5041171;28;20235;-76
2023/05/31 00:03:05;;;;;;;4.07;2.30;;;8.80;99.90;;;;;;5037021;28;20560;-75
2023/05/31 00:05:32;;;;;;;5.70;2.60;;;8.80;99.90;;;;;;5037197;28;20227;-75
2023/05/31 00:08:00;;;;;;;3.47;2.33;;;8.80;99.90;;;;;;5036601;28;20216;-75
2023/05/31 00:10:26;;;;;;;6.43;2.80;;;8.70;99.90;;;;;;5038746;28;20640;-75
2023/05/31 00:12:53;;;;;;;6.03;2.70;;;8.70;99.90;;;;;;5038466;28;20697;-76
2023/05/31 00:15:20;;;;;;;4.53;2.90;;;8.70;99.90;;;;;;5038036;28;20232;-75
2023/05/31 00:17:46;;;;;;;7.40;2.63;;;8.60;99.90;;;;;;5036919;28;20750;-76
2023/05/31 00:20:13;;;;;;;5.93;2.67;;;8.60;99.90;;;;;;5017015;28;20228;-75
2023/05/31 00:22:39;;;;;;;4.17;2.40;;;8.60;99.90;;;;;;5041423;28;20565;-75
2023/05/31 00:25:08;;;;;;;3.90;2.67;;;8.50;99.90;;;;;;5025187;28;20754;-75
2023/05/31 00:27:35;;;;;;;5.40;2.67;;;8.50;99.90;;;;;;5036063;28;20219;-75
2023/05/31 00:30:02;;;;;;;5.47;2.40;;;8.50;99.90;;;;;;5015145;28;20228;-75
2023/05/31 00:32:30;;;;;;;5.10;2.73;;;8.50;99.90;;;;;;5036662;28;20242;-75
2023/05/31 00:34:58;;;;;;;4.30;2.60;;;8.50;99.90;;;;;;5021030;28;20709;-75
2023/05/31 00:37:25;;;;;;;7.23;3.00;;;8.40;99.90;;;;;;5036161;28;21914;-74
2023/05/31 00:39:52;;;;;;;5.30;2.83;;;8.40;99.90;;;;;;5018989;28;20236;-74
2023/05/31 00:42:20;;;;;;;5.73;3.20;;;8.40;99.90;;;;;;5017153;28;21212;-74
2023/05/31 00:44:47;;;;;;;5.00;2.70;;;8.40;99.90;;;;;;5040967;28;20246;-74
2023/05/31 00:47:14;;;;;;;6.30;3.17;;;8.40;99.90;;;;;;5015399;28;20220;-74
2023/05/31 00:49:41;;;;;;;4.53;3.10;;;8.30;99.90;;;;;;5019959;28;20236;-74
2023/05/31 00:52:08;;;;;;;3.27;2.60;;;8.30;99.90;;;;;;5033525;28;20953;-74
2023/05/31 00:54:35;;;;;;;3.87;2.87;;;8.40;99.90;;;;;;5041339;28;20723;-74
2023/05/31 00:57:02;;;;;;;5.23;2.87;;;8.20;99.90;;;;;;5039198;28;20891;-76
2023/05/31 00:59:30;;;;;;;4.97;2.77;;;8.20;99.90;;;;;;5021044;28;20362;-76
2023/05/31 01:01:58;;;;;;;5.23;2.60;;;8.20;99.90;;;;;;5037378;28;20230;-76
2023/05/31 01:04:25;;;;;;;5.40;2.87;;;8.20;99.90;;;;;;5013614;28;20227;-74
2023/05/31 01:06:52;;;;;;;4.57;2.83;;;8.20;99.90;;;;;;5035460;28;20807;-74
2023/05/31 01:09:21;;;;;;;7.27;3.33;;;8.10;99.90;;;;;;5022687;28;20232;-74
2023/05/31 01:11:59;;;;;;;4.30;2.90;;;8.10;99.90;;;;;;5039773;28;20220;-74
2023/05/31 01:14:37;;;;;;;5.50;3.13;;;8.10;99.90;;;;;;5018632;28;20223;-75
2023/05/31 01:17:13;;;;;;;5.00;3.20;;;8.10;99.90;;;;;;5011608;28;20227;-75
2023/05/31 01:19:47;;;;;;;4.77;2.90;;;8.00;99.90;;;;;;5036162;28;20277;-75
2023/05/31 01:22:32;;;;;;;6.07;2.80;;;8.10;99.90;;;;;;5034087;28;20224;-75
2023/05/31 01:25:14;;;;;;;6.87;2.97;;;8.00;99.90;;;;;;5019352;28;20314;-75
2023/05/31 01:27:42;;;;;;;6.00;3.00;;;8.00;99.90;;;;;;5018348;28;20242;-75
2023/05/31 01:30:10;;;;;;;5.97;3.03;;;8.00;99.90;;;;;;5014562;28;20220;-76
2023/05/31 01:32:39;;;;;;;5.07;2.80;;;7.90;99.90;;;;;;5015106;28;20220;-75
2023/05/31 01:35:06;;;;;;;5.17;3.07;;;7.90;99.90;;;;;;5012791;28;21079;-77
2023/05/31 01:37:32;;;;;;;8.13;2.70;;;7.90;99.90;;;;;;5038053;28;20727;-77
2023/05/31 01:39:59;;;;;;;5.57;2.83;;;7.90;99.90;;;;;;5012211;28;20761;-76
2023/05/31 01:42:26;;;;;;;5.67;3.27;;;7.80;99.90;;;;;;5021437;28;20223;-76
2023/05/31 01:44:55;;;;;;;6.33;3.00;;;7.80;99.90;;;;;;5039596;28;20237;-76
2023/05/31 01:47:23;;;;;;;5.87;3.33;;;7.80;99.90;;;;;;5031651;28;20216;-75
2023/05/31 01:49:50;;;;;;;4.87;2.87;;;7.70;99.90;;;;;;5036189;28;20314;-75
2023/05/31 01:52:20;;;;;;;3.60;2.53;;;7.70;99.90;;;;;;5013693;28;20226;-75
2023/05/31 01:54:46;;;;;;;5.77;3.13;;;7.70;99.90;;;;;;5016107;28;20232;-75
2023/05/31 01:57:15;;;;;;;3.50;2.80;;;7.70;99.90;;;;;;5022316;28;20226;-75
2023/05/31 01:59:43;;;;;;;4.97;3.07;;;7.70;99.90;;;;;;5019690;28;20645;-74
2023/05/31 02:02:12;;;;;;;5.60;3.23;;;7.60;99.90;;;;;;5018299;28;20223;-75
2023/05/31 02:04:39;;;;;;;4.93;2.53;;;7.60;99.90;;;;;;5021056;28;20255;-75
2023/05/31 02:07:08;;;;;;;4.50;2.43;;;7.60;99.90;;;;;;5024342;28;20830;-75
2023/05/31 02:09:35;;;;;;;4.07;2.37;;;7.60;99.90;;;;;;5015545;28;20717;-75
2023/05/31 02:12:05;;;;;;;4.90;2.50;;;7.50;99.90;;;;;;5014097;28;20277;-75
2023/05/31 02:14:32;;;;;;;4.83;2.70;;;7.50;99.90;;;;;;5035429;28;20219;-76
2023/05/31 02:16:59;;;;;;;8.00;3.30;;;7.40;99.90;;;;;;5040913;28;20227;-75
2023/05/31 02:19:28;;;;;;;6.53;3.30;;;7.40;99.90;;;;;;5039271;28;20235;-76
2023/05/31 02:21:56;;;;;;;5.93;3.20;;;7.40;99.90;;;;;;5016719;28;20749;-74
2023/05/31 02:24:22;;;;;;;7.00;3.17;;;7.40;99.90;;;;;;5015985;28;20864;-75
2023/05/31 02:26:49;;;;;;;5.20;2.50;;;7.30;99.90;;;;;;5037121;28;20234;-76
2023/05/31 02:29:16;;;;;;;3.40;2.60;;;7.30;99.90;;;;;;5039091;28;20220;-75
2023/05/31 02:31:45;;;;;;;4.10;2.67;;;7.30;99.90;;;;;;5018639;28;20331;-76
2023/05/31 02:34:13;;;;;;;3.77;2.47;;;7.20;99.90;;;;;;5032006;28;20223;-75
2023/05/31 02:36:42;;;;;;;3.73;2.50;;;7.20;99.90;;;;;;5033235;28;20259;-76
2023/05/31 02:39:08;;;;;;;4.60;3.07;;;7.10;99.90;;;;;;5014243;28;20228;-75
2023/05/31 02:41:35;;;;;;;3.43;2.50;;;7.10;99.90;;;;;;5018503;28;20235;-76
2023/05/31 02:44:04;;;;;;;6.40;2.93;;;7.00;99.90;;;;;;5016520;28;20241;-75
2023/05/31 02:46:31;;;;;;;7.30;3.40;;;7.00;99.90;;;;;;5012675;28;20313;-75
2023/05/31 02:48:58;;;;;;;6.53;3.83;;;6.90;99.90;;;;;;5010510;28;20215;-75
2023/05/31 02:51:25;;;;;;;5.23;3.20;;;6.90;99.90;;;;;;5027797;28;20241;-75
2023/05/31 02:54:13;;;;;;;6.23;3.33;;;6.80;99.90;;;;;;4986704;28;20297;-76
2023/05/31 02:56:40;;;;;;;4.03;2.80;;;6.80;99.90;;;;;;5021404;28;20234;-76
2023/05/31 02:59:16;;;;;;;4.40;2.90;;;6.80;99.90;;;;;;5013900;28;20917;-76
2023/05/31 03:02:02;;;;;;;6.23;3.53;;;6.70;99.90;;;;;;5015121;28;20219;-76
2023/05/31 03:04:50;;;;;;;5.73;3.20;;;6.70;99.90;;;;;;5018437;28;20848;-75
2023/05/31 03:07:17;;;;;;;5.63;3.00;;;6.70;99.90;;;;;;5013362;28;20297;-76
2023/05/31 03:09:46;;;;;;;7.60;3.73;;;6.70;99.90;;;;;;5018147;28;20786;-75
2023/05/31 03:12:13;;;;;;;5.53;3.33;;;6.70;99.90;;;;;;5020679;28;20295;-76
2023/05/31 03:14:42;;;;;;;5.50;3.80;;;6.70;99.90;;;;;;5013337;28;20274;-75
2023/05/31 03:17:09;;;;;;;7.63;3.90;;;6.70;99.90;;;;;;5012912;28;20219;-75
2023/05/31 03:19:37;;;;;;;4.07;3.03;;;6.70;99.90;;;;;;5026665;28;20227;-76
2023/05/31 03:22:05;;;;;;;6.20;3.50;;;6.70;99.90;;;;;;5023575;28;20231;-76
2023/05/31 03:24:33;;;;;;;5.80;3.23;;;6.70;99.90;;;;;;5039013;28;20218;-76
2023/05/31 03:27:01;;;;;;;5.50;3.40;;;6.70;99.90;;;;;;5022211;28;20876;-79
2023/05/31 03:29:29;;;;;;;4.83;3.30;;;6.70;99.90;;;;;;5036028;28;20210;-79
2023/05/31 03:31:59;;;;;;;5.53;3.87;;;6.70;99.90;;;;;;5017352;28;21986;-79
2023/05/31 03:34:25;;;;;;;4.20;3.30;;;6.70;99.90;;;;;;5022288;28;20255;-79
2023/05/31 03:36:52;;;;;;;4.57;3.20;;;6.70;99.90;;;;;;5021136;28;20242;-78
2023/05/31 03:39:34;;;;;;;5.27;3.17;;;6.70;99.90;;;;;;5017637;28;20310;-79
2023/05/31 03:42:05;;;;;;;6.37;3.60;;;6.80;99.90;;;;;;5021216;28;20234;-79
2023/05/31 03:44:32;;;;;;;6.17;3.30;;;6.80;99.90;;;;;;5019764;28;20219;-79
2023/05/31 03:46:59;;;;;;;8.07;3.97;;;6.80;99.90;;;;;;5024815;28;20905;-79
2023/05/31 03:49:25;;;;;;;6.33;3.63;;;6.80;99.90;;;;;;5020433;28;20285;-79
2023/05/31 03:51:52;;;;;;;5.80;3.60;;;6.80;99.90;;;;;;5035390;28;20219;-79
2023/05/31 03:54:19;;;;;;;5.37;3.67;;;6.80;99.90;;;;;;5021703;28;20222;-79
2023/05/31 03:56:46;;;;;;;6.90;3.73;;;6.90;99.90;;;;;;5020724;28;20231;-79
2023/05/31 03:59:14;;;;;;;8.57;4.10;;;6.90;99.90;;;;;;5018609;28;20216;-79
2023/05/31 04:01:41;;;;;;;8.53;4.50;;;7.00;99.90;;;;;;5034749;28;20232;-79
2023/05/31 04:04:07;;;;;;;5.67;4.07;;;7.00;99.90;;;;;;5021136;28;20228;-79
2023/05/31 04:06:35;;;;;;;7.67;4.13;;;7.10;99.90;;;;;;5022666;28;20360;-79
2023/05/31 04:09:02;;;;;;;7.00;4.10;;;7.10;99.90;;;;;;5018253;28;20937;-78
2023/05/31 04:11:29;;;;;;;6.47;4.23;;;7.20;99.90;;;;;;5032805;28;20236;-79
2023/05/31 04:13:57;;;;;;;6.77;4.03;;;7.20;99.90;;;;;;5016486;28;20634;-78
2023/05/31 04:16:26;;;;;;;6.33;4.60;;;7.30;99.90;;;;;;5015581;28;20251;-79
2023/05/31 04:18:53;;;;;;;6.50;4.47;;;7.30;99.90;;;;;;5021002;28;20270;-79
2023/05/31 04:21:20;;;;;;;6.90;4.60;;;7.40;99.90;;;;;;5018262;28;20237;-78
2023/05/31 04:23:47;;;;;;;5.80;4.03;;;7.40;99.90;;;;;;5018956;28;20445;-79
2023/05/31 04:26:16;;;;;;;7.70;4.43;;;7.50;99.90;;;;;;5018768;28;20219;-79
2023/05/31 04:28:45;;;;;;;6.03;4.00;;;7.50;99.90;;;;;;5016963;28;20220;-79
2023/05/31 04:31:12;;;;;;;9.43;4.63;;;7.60;99.90;;;;;;5034769;28;20696;-78
2023/05/31 04:33:42;;;;;;;6.73;4.10;;;7.60;99.90;;;;;;5018804;28;20220;-79
2023/05/31 04:36:10;;;;;;;7.40;4.60;;;7.70;99.90;;;;;;5012918;28;20228;-78
2023/05/31 04:38:37;;;;;;;7.03;4.37;;;7.80;99.90;;;;;;5015855;28;20220;-78
2023/05/31 04:41:04;;;;;;;9.47;4.80;;;7.80;99.90;;;;;;5012755;28;20224;-79
2023/05/31 04:43:31;;;;;;;7.47;4.80;;;7.90;99.90;;;;;;5039304;28;20227;-80
2023/05/31 04:46:00;;;;;;;8.77;4.80;;;8.00;99.90;;;;;;5014515;28;20901;-79
2023/05/31 04:48:27;;;;;;;9.00;4.73;;;8.10;99.90;;;;;;5023120;28;20235;-80
2023/05/31 04:50:58;;;;;;;12.80;8.00;;;8.10;99.90;;;;;;5024370;28;20757;-81
2023/05/31 04:53:25;;;;;;;10.77;4.87;;;8.20;99.90;;;;;;5020259;28;20223;-80
2023/05/31 04:55:52;;;;;;;13.20;6.83;;;8.30;99.90;;;;;;5013623;28;20227;-79
2023/05/31 04:58:20;;;;;;;8.60;4.90;;;8.30;99.90;;;;;;5018663;28;20696;-79
2023/05/31 05:00:48;;;;;;;9.20;4.80;;;8.40;99.90;;;;;;5023261;28;20303;-79
2023/05/31 05:03:35;;;;;;;6.67;4.40;;;8.50;99.90;;;;;;5044136;28;20275;-79
2023/05/31 05:06:13;;;;;;;6.43;4.00;;;8.50;99.90;;;;;;5014500;28;20219;-78
2023/05/31 05:08:40;;;;;;;6.47;3.93;;;8.60;99.90;;;;;;5024751;28;20246;-79
2023/05/31 05:11:07;;;;;;;5.73;3.80;;;8.70;99.90;;;;;;5025791;28;20224;-78
2023/05/31 05:13:34;;;;;;;6.50;3.97;;;8.70;99.90;;;;;;5038571;28;20315;-78
2023/05/31 05:16:02;;;;;;;6.77;4.60;;;8.80;99.90;;;;;;5015047;28;20814;-78
2023/05/31 05:18:29;;;;;;;7.33;4.57;;;8.90;99.90;;;;;;5021486;28;20234;-80
2023/05/31 05:20:57;;;;;;;6.83;4.43;;;9.00;99.90;;;;;;5022238;28;20235;-80
2023/05/31 05:23:28;;;;;;;9.33;5.10;;;9.00;99.90;;;;;;5027280;28;20318;-82
2023/05/31 05:25:56;;;;;;;6.40;4.63;;;9.10;99.90;;;;;;5020402;28;20239;-81
2023/05/31 05:28:25;;;;;;;7.37;4.90;;;9.20;99.90;;;;;;5028976;28;20594;-80
2023/05/31 05:30:53;;;;;;;9.33;5.10;;;9.30;99.90;;;;;;5022814;28;20218;-82
2023/05/31 05:33:20;;;;;;;12.20;5.20;;;9.40;99.90;;;;;;5036398;28;20901;-81
2023/05/31 05:35:47;;;;;;;9.90;4.80;;;9.50;99.90;;;;;;5021376;28;20780;-80
2023/05/31 05:38:13;;;;;;;10.13;5.23;;;9.70;99.90;;;;;;5014877;28;20244;-79
2023/05/31 05:40:41;;;;;;;9.43;5.23;;;9.80;99.90;;;;;;5023686;28;20614;-80
2023/05/31 05:43:08;;;;;;;13.30;5.63;;;9.90;99.90;;;;;;5010400;28;20259;-79
2023/05/31 05:45:46;;;;;;;10.03;5.07;;;10.10;99.90;;;;;;5015807;28;20238;-79
2023/05/31 05:48:14;;;;;;;7.10;5.10;;;10.20;99.90;;;;;;5025234;28;20260;-79
2023/05/31 05:50:40;;;;;;;9.30;5.30;;;10.40;99.90;;;;;;5017555;28;20282;-80
2023/05/31 05:53:07;;;;;;;8.23;4.70;;;10.50;99.90;;;;;;5015488;28;20226;-79
2023/05/31 05:55:35;;;;;;;7.87;4.43;;;10.60;99.90;;;;;;5013624;28;20235;-80
2023/05/31 05:58:03;;;;;;;8.43;4.40;;;10.80;99.90;;;;;;5015109;28;20216;-79
2023/05/31 06:00:48;;;;;;;9.67;5.07;;;10.90;99.90;;;;;;5001773;28;20762;-79
2023/05/31 06:03:15;;;;;;;10.70;4.40;;;11.10;99.90;;;;;;5011649;28;20314;-79
2023/05/31 06:05:42;;;;;;;7.93;4.60;;;11.20;99.90;;;;;;5016805;28;20219;-79
2023/05/31 06:08:10;;;;;;;8.57;5.17;;;11.30;99.90;;;;;;5022464;28;20233;-79
2023/05/31 06:10:37;;;;;;;8.23;4.53;;;11.50;99.90;;;;;;5025266;28;20220;-79
2023/05/31 06:13:06;;;;;;;9.83;5.23;;;11.50;99.90;;;;;;5024340;28;21036;-79
2023/05/31 06:15:34;;;;;;;8.60;4.77;;;11.70;99.90;;;;;;5019681;28;20246;-79
2023/05/31 06:18:01;;;;;;;7.83;4.80;;;11.80;99.90;;;;;;5021596;28;20232;-79
2023/05/31 06:20:28;;;;;;;10.47;5.13;;;11.90;99.90;;;;;;5023124;28;20218;-79
2023/05/31 06:23:20;;;;;;;8.13;4.43;;;12.00;99.90;;;;;;5027623;28;20200;-79
2023/05/31 06:25:47;;;;;;;8.50;4.80;;;12.10;99.90;;;;;;5019526;28;20291;-79
2023/05/31 06:28:15;;;;;;;10.00;5.50;;;12.20;99.90;;;;;;5016767;28;20219;-80
2023/05/31 06:30:43;;;;;;;9.93;5.73;;;12.40;99.90;;;;;;5035121;28;20225;-79
2023/05/31 06:33:10;;;;;;;11.00;4.80;;;12.50;99.90;;;;;;5022043;28;20222;-79
2023/05/31 06:35:37;;;;;;;8.33;3.80;;;12.70;99.90;;;;;;5024569;28;20237;-79
2023/05/31 06:38:04;;;;;;;6.60;3.43;;;12.90;99.90;;;;;;5017973;28;20217;-79
2023/05/31 06:40:31;;;;;;;6.13;2.97;;;13.10;99.90;;;;;;5024327;28;20237;-80
2023/05/31 06:42:57;;;;;;;3.67;2.30;;;13.30;99.90;;;;;;5018994;28;20242;-79
2023/05/31 06:46:07;;;;;;;4.10;1.90;;;13.50;99.90;;;;;;5040065;28;20250;-79
2023/05/31 06:48:53;;;;;;;6.97;3.90;;;13.80;99.90;;;;;;5037012;28;20232;-80
2023/05/31 06:51:39;;;;;;;5.20;2.30;;;14.10;99.90;;;;;;5040329;28;20337;-79
2023/05/31 06:54:25;;;;;;;4.57;2.13;;;14.40;99.90;;;;;;5039213;28;20591;-79
2023/05/31 06:56:52;;;;;;;4.63;2.73;;;14.60;99.90;;;;;;5036268;28;20238;-79
2023/05/31 06:59:19;;;;;;;4.67;2.60;;;14.90;99.90;;;;;;5024077;28;20251;-79
2023/05/31 07:01:47;;;;;;;3.47;2.00;;;15.20;99.90;;;;;;5020120;28;20303;-79
2023/05/31 07:04:14;;;;;;;6.97;2.13;;;15.50;99.90;;;;;;5036342;28;20728;-79
2023/05/31 07:06:42;;;;;;;3.80;2.20;;;15.90;99.90;;;;;;5019397;28;20220;-79
2023/05/31 07:09:08;;;;;;;4.47;2.30;;;16.40;99.90;;;;;;5024071;28;20641;-78
2023/05/31 07:11:40;;;;;;;4.13;2.50;;;17.00;99.90;;;;;;5024662;28;20251;-79
2023/05/31 07:14:07;;;;;;;5.95;2.20;;;17.80;99.90;;;;;;5022114;28;20659;-79
2023/05/31 07:16:34;;;;;;;5.07;2.10;;;18.40;99.90;;;;;;5022070;28;20224;-79
2023/05/31 07:19:02;;;;;;;4.95;2.25;;;19.10;99.90;;;;;;5024087;28;20328;-79
2023/05/31 07:21:30;;;;;;;4.38;2.08;;;19.80;98.70;;;;;;5019623;28;20270;-79
2023/05/31 07:23:57;;;;;;;6.93;2.00;;;20.50;97.80;;;;;;5021648;28;20222;-81
2023/05/31 07:26:24;;;;;;;4.68;1.85;;;21.20;97.00;;;;;;5034510;28;20235;-78
2023/05/31 07:28:52;;;;;;;3.17;1.75;;;21.90;95.40;;;;;;5019376;28;20271;-79
2023/05/31 07:31:20;;;;;;;3.47;1.55;;;22.70;93.40;;;;;;5018395;28;20228;-79
2023/05/31 07:33:47;;;;;;;3.50;1.92;;;23.20;92.40;;;;;;5022074;28;20311;-80
2023/05/31 07:36:15;;;;;;;3.45;1.77;;;23.90;91.50;;;;;;5037084;28;20229;-80
2023/05/31 07:38:42;;;;;;;3.67;1.67;;;24.40;89.10;;;;;;5038766;28;20225;-80
2023/05/31 07:41:08;;;;;;;4.15;1.60;;;24.90;88.40;;;;;;5021005;28;20220;-80
2023/05/31 07:43:36;;;;;;;3.40;2.15;;;25.30;83.90;;;;;;5019229;28;20247;-80
2023/05/31 07:46:03;;;;;;;2.88;1.67;;;25.70;81.30;;;;;;5032897;28;20244;-80
2023/05/31 07:48:32;;;;;;;4.30;2.03;;;26.00;80.40;;;;;;5022721;28;20238;-80
2023/05/31 07:50:58;;;;;;;6.10;1.70;;;26.20;79.90;;;;;;5043283;28;20251;-80
2023/05/31 07:53:26;;;;;;;5.20;1.77;;;26.50;78.30;;;;;;5039103;28;20242;-80
2023/05/31 07:55:53;;;;;;;4.93;1.70;;;26.70;75.90;;;;;;5023463;28;20233;-80
2023/05/31 07:58:20;;;;;;;3.70;1.58;;;26.80;75.50;;;;;;5024238;28;20586;-80
2023/05/31 08:00:47;;;;;;;3.85;1.73;;;27.00;73.60;;;;;;5045910;28;20269;-80
2023/05/31 08:03:14;;;;;;;4.22;1.80;;;27.20;71.70;;;;;;5021804;28;20738;-80
2023/05/31 08:05:40;;;;;;;3.08;1.55;;;27.30;70.70;;;;;;5042232;28;20231;-80
2023/05/31 08:08:07;;;;;;;5.90;1.70;;;27.50;69.50;;;;;;5041904;28;20220;-80
2023/05/31 08:10:36;;;;;;;2.35;1.70;;;27.50;68.20;;;;;;5021779;28;20665;-80
2023/05/31 08:13:02;;;;;;;3.47;2.00;;;27.60;68.00;;;;;;5023024;28;20222;-80
2023/05/31 08:15:29;;;;;;;3.53;1.90;;;27.80;68.10;;;;;;5036505;28;20753;-80
2023/05/31 08:17:56;;;;;;;4.20;1.50;;;27.90;64.70;;;;;;5041245;28;20740;-80
2023/05/31 08:20:23;;;;;;;4.60;1.75;;;28.10;66.10;;;;;;5024286;28;20223;-80
2023/05/31 08:22:50;;;;;;;4.75;1.85;;;28.20;66.00;;;;;;5038739;28;20781;-81
2023/05/31 08:25:18;;;;;;;4.38;1.98;;;28.40;65.00;;;;;;5022547;28;20319;-80
2023/05/31 08:27:46;;;;;;;5.18;2.20;;;28.60;64.30;;;;;;5040811;28;20231;-80
2023/05/31 08:30:13;;;;;;;5.25;1.88;;;28.80;62.50;;;;;;5019815;28;20247;-80
2023/05/31 08:32:41;;;;;;;4.25;1.88;;;29.00;62.40;;;;;;5038668;28;20244;-80
2023/05/31 08:35:09;;;;;;;3.72;1.80;;;29.10;61.70;;;;;;5025981;28;20274;-80
2023/05/31 08:37:37;;;;;;;4.90;1.70;;;29.20;60.80;;;;;;5042067;28;20251;-80
2023/05/31 08:40:06;;;;;;;4.50;1.60;;;29.30;58.80;;;;;;5038220;28;20588;-80
2023/05/31 08:42:40;;;;;;;2.95;1.30;;;29.30;58.80;;;;;;5039368;28;20224;-80
2023/05/31 08:45:35;;;;;;;2.72;1.60;;;29.30;57.00;;;;;;5034599;28;20959;-80
2023/05/31 08:48:34;;;;;;;3.75;1.65;;;29.40;57.00;;;;;;5034933;28;20426;-80
2023/05/31 08:51:26;;;;;;;1.80;1.40;;;29.50;57.30;;;;;;5029297;28;20335;-80
2023/05/31 08:54:19;;;;;;;3.22;1.77;;;29.60;57.50;;;;;;5033454;28;20219;-80
2023/05/31 08:57:13;;;;;;;2.92;1.60;;;29.70;57.10;;;;;;5034909;28;20250;-80
2023/05/31 09:00:10;;;;;;;2.90;1.60;;;29.80;57.00;;;;;;5034338;28;20191;-79
2023/05/31 09:03:07;;;;;;;5.57;1.77;;;29.90;55.50;;;;;;5035296;28;20274;-80
2023/05/31 09:13:38;;;;;;;5.60;1.90;;;30.30;55.50;;;;;;5031355;28;20196;-79
2023/05/31 09:16:30;;;;;;;4.47;1.70;;;30.40;55.20;;;;;;5034865;28;20303;-80
2023/05/31 09:19:23;;;;;;;3.10;1.30;;;30.50;54.60;;;;;;5034327;28;20195;-80
2023/05/31 09:22:16;;;;;;;6.00;2.00;;;30.70;53.80;;;;;;5035854;28;20254;-80
2023/05/31 09:25:08;;;;;;;4.55;1.65;;;30.80;53.50;;;;;;5034653;28;20996;-80
2023/05/31 09:28:00;;;;;;;3.72;1.98;;;31.10;53.20;;;;;;5048265;23;20238;-77
2023/05/31 09:31:03;;;;;;;5.03;1.73;;;31.20;52.60;;;;;;5033599;28;20411;-78
2023/05/31 09:33:55;;;;;;;4.30;1.90;;;31.30;51.60;;;;;;5032634;28;20340;-78
2023/05/31 09:36:51;;;;;;;5.47;1.90;;;31.40;51.00;;;;;;5033768;28;20319;-78
2023/05/31 09:39:54;;;;;;;5.07;1.80;;;31.10;49.40;;;;;;5037535;28;20206;-78
2023/05/31 09:42:49;;;;;;;5.25;2.25;;;30.80;49.00;;;;;;5031969;28;20228;-77
2023/05/31 09:45:48;;;;;;;4.63;2.00;;;30.60;49.40;;;;;;5031825;28;20200;-77
2023/05/31 09:48:40;;;;;;;6.53;2.08;;;30.50;49.90;;;;;;5035172;28;20204;-77
2023/05/31 09:51:32;;;;;;;6.20;2.25;;;30.50;50.40;;;;;;5034695;28;20203;-78
2023/05/31 09:54:26;;;;;;;8.27;2.40;;;30.40;49.50;;;;;;5028467;28;20918;-78
2023/05/31 09:57:40;;;;;;;5.00;2.25;;;30.30;49.60;;;;;;5024355;28;20219;-77
2023/05/31 10:00:32;;;;;;;4.90;1.90;;;30.20;49.60;;;;;;5025527;28;20258;-77
2023/05/31 10:03:24;;;;;;;6.07;2.03;;;30.10;49.80;;;;;;5027698;28;20258;-77
2023/05/31 10:06:17;;;;;;;7.53;2.10;;;30.20;49.30;;;;;;5026251;28;20338;-77
2023/05/31 10:09:09;;;;;;;3.67;1.80;;;30.20;49.00;;;;;;5023638;28;20208;-77
2023/05/31 10:12:03;;;;;;;3.13;1.70;;;30.30;49.20;;;;;;5029793;28;20497;-78
2023/05/31 10:14:35;;;;;;;4.57;1.90;;;30.40;48.80;;;;;;5020816;28;20236;-78
2023/05/31 10:17:06;;;;;;;4.82;1.90;;;30.50;48.20;;;;;;5038650;28;20232;-79
2023/05/31 10:19:37;;;;;;;5.68;2.60;;;30.60;48.60;;;;;;5038428;28;20234;-77
2023/05/31 10:22:07;;;;;;;6.30;2.15;;;30.60;48.30;;;;;;5019473;28;20711;-78
2023/05/31 10:24:40;;;;;;;5.10;1.95;;;30.60;48.60;;;;;;5037193;28;20314;-78
2023/05/31 10:27:16;;;;;;;4.25;2.00;;;30.80;48.20;;;;;;5035000;28;20851;-78
2023/05/31 10:29:49;;;;;;;5.18;2.28;;;30.90;47.90;;;;;;5033389;28;20299;-77
2023/05/31 10:32:20;;;;;;;4.07;2.13;;;31.00;47.90;;;;;;5032720;28;20217;-78
2023/05/31 10:34:48;;;;;;;2.97;2.15;;;31.10;47.20;;;;;;5028411;28;20212;-78
2023/05/31 10:37:15;;;;;;;3.97;1.90;;;31.20;47.20;;;;;;5037813;28;20224;-77
2023/05/31 10:39:47;;;;;;;5.63;2.17;;;31.30;47.40;;;;;;5024991;28;20246;-78
2023/05/31 10:42:23;;;;;;;3.67;1.60;;;31.40;45.70;;;;;;5036477;28;20220;-78
2023/05/31 10:44:58;;;;;;;6.72;2.00;;;31.50;45.70;;;;;;5038717;28;20219;-77
2023/05/31 10:47:32;;;;;;;3.45;1.85;;;31.50;45.20;;;;;;5027370;28;20293;-78
2023/05/31 10:50:03;;;;;;;3.58;1.85;;;31.60;45.20;;;;;;5033895;28;20225;-78
2023/05/31 10:52:30;;;;;;;4.03;1.48;;;31.60;44.80;;;;;;5035752;28;20267;-78
2023/05/31 10:55:15;;;;;;;3.15;1.45;;;31.50;45.20;;;;;;5033476;28;20294;-78
2023/05/31 10:57:43;;;;;;;2.72;1.65;;;31.40;44.40;;;;;;5036870;28;20272;-79
2023/05/31 11:00:11;;;;;;;3.67;1.90;;;31.40;44.30;;;;;;5033465;28;20227;-78
2023/05/31 11:02:39;;;;;;;5.32;1.90;;;31.40;44.40;;;;;;5030460;28;20228;-77
2023/05/31 11:05:19;;;;;;;3.72;1.70;;;31.50;44.20;;;;;;5036042;28;20290;-79
2023/05/31 11:07:46;;;;;;;2.78;1.50;;;31.50;44.20;;;;;;5039624;28;20279;-78
2023/05/31 11:10:25;;;;;;;3.40;1.73;;;31.60;44.00;;;;;;5036522;28;20227;-78
2023/05/31 11:12:54;;;;;;;2.70;1.60;;;31.70;43.90;;;;;;5033623;28;20212;-79
2023/05/31 11:15:20;;;;;;;3.53;1.50;;;31.80;44.30;;;;;;5033580;28;20216;-77
2023/05/31 11:17:54;;;;;;;3.28;1.52;;;31.90;44.10;;;;;;5034045;28;20252;-78
2023/05/31 11:20:22;;;;;;;3.53;1.80;;;32.00;43.80;;;;;;5035668;28;20259;-78
2023/05/31 11:23:08;;;;;;;4.88;1.50;;;32.10;43.90;;;;;;5037644;28;20779;-78
2023/05/31 11:25:35;;;;;;;5.30;2.22;;;32.20;43.50;;;;;;5039086;28;20256;-79
2023/05/31 11:28:10;;;;;;;3.22;1.63;;;32.10;43.60;;;;;;5037864;28;20279;-77
2023/05/31 11:30:38;;;;;;;3.97;1.90;;;32.10;43.80;;;;;;5024754;28;20232;-77
2023/05/31 11:33:15;;;;;;;3.53;1.70;;;32.10;43.70;;;;;;5034649;28;21965;-79
2023/05/31 11:35:41;;;;;;;1.77;1.45;;;32.00;43.30;;;;;;5039224;28;20275;-78
2023/05/31 11:38:08;;;;;;;3.10;1.77;;;32.00;44.10;;;;;;5038748;28;20224;-78
2023/05/31 11:40:36;;;;;;;3.03;1.50;;;32.00;43.60;;;;;;5038128;28;20227;-79
2023/05/31 11:43:06;;;;;;;3.47;1.60;;;31.90;42.60;;;;;;5038520;28;20931;-79
2023/05/31 11:45:34;;;;;;;4.00;1.90;;;31.80;42.80;;;;;;5037856;28;20237;-79
2023/05/31 11:48:22;;;;;;;4.07;1.80;;;31.70;42.70;;;;;;5017265;28;20729;-78
2023/05/31 11:50:49;;;;;;;3.80;1.80;;;31.50;42.70;;;;;;5031455;28;20924;-79
2023/05/31 11:53:15;;;;;;;4.68;2.05;;;31.40;43.40;;;;;;5031759;28;20225;-79
2023/05/31 11:55:47;;;;;;;4.82;2.25;;;31.30;43.30;;;;;;5034680;28;20616;-77
2023/05/31 11:58:13;;;;;;;3.90;2.30;;;31.20;43.60;;;;;;5042347;28;20323;-79
2023/05/31 12:00:46;;;;;;;5.80;2.35;;;31.20;43.90;;;;;;5028180;28;20217;-78
2023/05/31 12:03:16;;;;;;;4.88;2.40;;;31.20;43.80;;;;;;5032140;28;20722;-78
2023/05/31 12:05:49;;;;;;;4.72;2.47;;;31.10;44.10;;;;;;5030169;28;20216;-78
2023/05/31 12:08:17;;;;;;;5.50;2.72;;;31.10;44.10;;;;;;5033202;28;20221;-79
2023/05/31 12:10:45;;;;;;;5.97;2.63;;;31.00;44.20;;;;;;5029531;28;20223;-79
2023/05/31 12:13:12;;;;;;;4.93;2.55;;;30.80;44.30;;;;;;5038051;28;20648;-79
2023/05/31 12:15:39;;;;;;;5.40;3.13;;;30.60;44.80;;;;;;5031153;28;20228;-79
2023/05/31 12:18:07;;;;;;;6.22;3.70;;;30.40;45.30;;;;;;5016572;28;20235;-78
2023/05/31 12:20:35;;;;;;;5.95;3.33;;;30.10;45.90;;;;;;5015522;28;20243;-77
2023/05/31 12:23:11;;;;;;;7.22;3.13;;;29.90;46.20;;;;;;5040639;28;20228;-78
2023/05/31 12:25:43;;;;;;;5.32;2.70;;;29.80;46.90;;;;;;5025127;28;20824;-78
2023/05/31 12:28:11;;;;;;;6.30;3.10;;;29.80;47.30;;;;;;5019600;28;20828;-78
2023/05/31 12:30:43;;;;;;;6.43;2.67;;;29.70;47.30;;;;;;5000708;28;20279;-78
2023/05/31 12:33:12;;;;;;;14.05;3.10;;;29.70;47.40;;;;;;5014747;28;20216;-78
2023/05/31 12:35:43;;;;;;;4.75;2.80;;;29.70;47.90;;;;;;5017527;28;20236;-80
2023/05/31 12:38:10;;;;;;;4.20;2.65;;;29.60;48.70;;;;;;5036746;28;20307;-80
2023/05/31 12:40:42;;;;;;;4.47;2.72;;;29.70;48.70;;;;;;5020745;28;20237;-80
2023/05/31 12:43:09;;;;;;;5.68;2.63;;;29.70;49.20;;;;;;5038445;28;20216;-80
2023/05/31 12:45:40;;;;;;;4.10;2.28;;;29.80;49.30;;;;;;5014406;28;20237;-79
2023/05/31 12:48:08;;;;;;;4.72;1.77;;;30.00;49.60;;;;;;5032151;28;20224;-80
2023/05/31 12:50:36;;;;;;;6.05;2.10;;;30.10;49.30;;;;;;5029221;28;20229;-79
2023/05/31 12:53:08;;;;;;;4.88;1.95;;;30.20;49.20;;;;;;5041109;28;20224;-79
2023/05/31 12:55:34;;;;;;;6.50;1.90;;;30.20;48.80;;;;;;5022976;28;20722;-80
2023/05/31 12:58:01;;;;;;;3.80;2.10;;;30.30;49.50;;;;;;5034101;28;20234;-79
2023/05/31 13:00:28;;;;;;;4.15;1.40;;;30.30;48.90;;;;;;5020753;28;20227;-80
2023/05/31 13:02:54;;;;;;;3.40;1.45;;;30.30;48.70;;;;;;5043105;28;20221;-80
2023/05/31 13:05:21;;;;;;;2.50;1.52;;;30.30;48.70;;;;;;5024238;28;20216;-80
2023/05/31 13:07:50;;;;;;;3.45;1.48;;;30.30;48.80;;;;;;5018256;28;20233;-80
2023/05/31 13:10:16;;;;;;;4.97;1.20;;;30.10;49.00;;;;;;5046497;28;20228;-80
2023/05/31 13:12:43;;;;;;;4.10;1.58;;;30.10;49.40;;;;;;5036032;28;20821;-80
2023/05/31 13:15:11;;;;;;;4.22;1.70;;;30.00;49.60;;;;;;5036489;28;20598;-80
2023/05/31 13:17:37;;;;;;;2.33;1.50;;;29.80;49.60;;;;;;5040874;28;20219;-80
2023/05/31 13:20:07;;;;;;;2.90;1.60;;;29.80;49.70;;;;;;5035449;28;20225;-80